createdAt,value
2018-12-11T00:00:52.341Z,99.99
2018-12-11T00:01:52.336Z,99.99
2018-12-11T00:02:52.299Z,99.99
2018-12-11T00:03:52.227Z,99.99
2018-12-11T00:04:52.214Z,99.99
2018-12-11T00:05:52.096Z,99.99
2018-12-11T00:06:52.096Z,99.99
2018-12-11T00:07:51.983Z,99.99
2018-12-11T00:08:51.973Z,99.99
2018-12-11T00:09:51.975Z,99.99
2018-12-11T00:10:51.861Z,99.99
2018-12-11T00:11:51.855Z,99.99
2018-12-11T00:12:51.731Z,99.99
2018-12-11T00:13:51.732Z,99.99
2018-12-11T00:14:51.736Z,99.99
2018-12-11T00:15:51.616Z,99.99
2018-12-11T00:16:51.612Z,99.99
2018-12-11T00:17:51.491Z,99.99
2018-12-11T00:18:51.502Z,99.99
2018-12-11T00:19:51.506Z,99.99
2018-12-11T00:20:51.372Z,99.99
2018-12-11T00:21:51.379Z,99.99
2018-12-11T00:22:51.252Z,99.99
2018-12-11T00:23:51.252Z,99.99
2018-12-11T00:24:51.133Z,99.99
2018-12-11T00:25:51.130Z,99.99
2018-12-11T00:26:51.142Z,99.99
2018-12-11T00:27:51.009Z,99.99
2018-12-11T00:28:51.010Z,99.99
2018-12-11T00:29:50.891Z,99.99
2018-12-11T00:30:50.888Z,99.99
2018-12-11T00:31:50.900Z,99.99
2018-12-11T00:32:50.771Z,99.99
2018-12-11T00:33:50.769Z,99.99
2018-12-11T00:34:50.651Z,99.99
2018-12-11T00:35:50.648Z,99.99
2018-12-11T00:36:50.652Z,99.99
2018-12-11T00:37:50.527Z,99.99
2018-12-11T00:38:50.532Z,99.99
2018-12-11T00:39:50.407Z,99.99
2018-12-11T00:40:50.406Z,99.99
2018-12-11T00:41:50.371Z,99.99
2018-12-11T00:42:50.286Z,99.99
2018-12-11T00:43:50.286Z,99.99
2018-12-11T00:44:50.165Z,99.99
2018-12-11T00:45:50.173Z,99.99
2018-12-11T00:46:50.048Z,99.99
2018-12-11T00:47:50.044Z,99.99
2018-12-11T00:48:50.054Z,99.99
2018-12-11T00:49:49.926Z,99.99
2018-12-11T00:50:49.924Z,99.99
2018-12-11T00:51:49.813Z,99.99
2018-12-11T00:52:49.809Z,99.99
2018-12-11T00:53:49.805Z,99.99
2018-12-11T00:54:49.683Z,99.99
2018-12-11T00:55:49.683Z,99.99
2018-12-11T00:56:49.569Z,99.99
2018-12-11T00:57:49.570Z,99.99
2018-12-11T00:58:49.530Z,99.99
2018-12-11T00:59:49.448Z,99.99
2018-12-11T01:00:49.441Z,99.99
2018-12-11T01:01:49.328Z,99.99
2018-12-11T01:02:49.328Z,99.99
2018-12-11T01:03:49.203Z,99.99
2018-12-11T01:04:49.204Z,99.99
2018-12-11T01:05:49.208Z,99.99
2018-12-11T01:06:49.084Z,99.99
2018-12-11T01:07:49.084Z,99.99
2018-12-11T01:08:48.960Z,99.99
2018-12-11T01:09:48.960Z,99.99
2018-12-11T01:10:48.961Z,99.99
2018-12-11T01:11:48.842Z,99.99
2018-12-11T01:12:48.841Z,99.99
2018-12-11T01:13:48.720Z,99.99
2018-12-11T01:14:48.719Z,99.99
2018-12-11T01:15:48.702Z,99.99
2018-12-11T01:16:48.599Z,99.99
2018-12-11T01:17:48.598Z,99.99
2018-12-11T01:18:48.479Z,99.99
2018-12-11T01:19:48.481Z,99.99
2018-12-11T01:20:48.357Z,99.99
2018-12-11T01:21:48.360Z,99.99
2018-12-11T01:22:48.358Z,99.99
2018-12-11T01:23:48.239Z,99.99
2018-12-11T01:24:48.245Z,99.99
2018-12-11T01:25:48.117Z,99.99
2018-12-11T01:26:48.118Z,99.99
2018-12-11T01:27:48.117Z,99.99
2018-12-11T01:28:47.997Z,99.99
2018-12-11T01:29:47.997Z,99.99
2018-12-11T01:30:47.883Z,99.99
2018-12-11T01:31:47.876Z,99.99
2018-12-11T01:32:47.873Z,99.99
2018-12-11T01:33:47.760Z,99.99
2018-12-11T01:34:47.764Z,99.99
2018-12-11T01:35:47.640Z,99.99
2018-12-11T01:36:47.634Z,99.99
2018-12-11T01:37:47.525Z,99.99
2018-12-11T01:38:47.516Z,99.99
2018-12-11T01:39:47.517Z,99.99
2018-12-11T01:40:47.394Z,99.99
2018-12-11T01:41:47.401Z,99.99
2018-12-11T01:42:47.281Z,99.99
2018-12-11T01:43:47.277Z,99.99
2018-12-11T01:44:47.280Z,99.99
2018-12-11T01:45:47.165Z,99.99
2018-12-11T01:46:47.154Z,99.99
2018-12-11T01:47:47.033Z,99.99
2018-12-11T01:48:47.043Z,99.99
2018-12-11T01:49:47.031Z,99.99
2018-12-11T01:50:46.917Z,99.99
2018-12-11T01:51:46.924Z,99.99
2018-12-11T01:52:46.799Z,99.99
2018-12-11T01:53:46.793Z,99.99
2018-12-11T01:54:46.673Z,99.99
2018-12-11T01:55:46.671Z,99.99
2018-12-11T01:56:46.671Z,99.99
2018-12-11T01:57:46.552Z,99.99
2018-12-11T01:58:46.550Z,99.99
2018-12-11T01:59:46.438Z,99.99
2018-12-11T02:00:46.460Z,99.99
2018-12-11T02:01:46.433Z,99.99
2018-12-11T02:02:46.312Z,99.99
2018-12-11T02:03:46.308Z,99.99
2018-12-11T02:04:46.195Z,99.99
2018-12-11T02:05:46.197Z,99.99
2018-12-11T02:06:46.189Z,99.99
2018-12-11T02:07:46.075Z,99.99
2018-12-11T02:08:46.067Z,99.99
2018-12-11T02:09:45.955Z,99.99
2018-12-11T02:10:45.954Z,99.99
2018-12-11T02:11:45.829Z,99.99
2018-12-11T02:12:45.827Z,99.99
2018-12-11T02:13:45.828Z,99.99
2018-12-11T02:14:45.707Z,99.99
2018-12-11T02:15:45.709Z,99.99
2018-12-11T02:16:45.586Z,99.99
2018-12-11T02:17:45.587Z,99.99
2018-12-11T02:18:45.597Z,99.99
2018-12-11T02:19:45.467Z,99.99
2018-12-11T02:20:45.474Z,99.99
2018-12-11T02:21:45.348Z,99.99
2018-12-11T02:22:45.349Z,99.99
2018-12-11T02:23:45.345Z,99.99
2018-12-11T02:24:45.227Z,99.99
2018-12-11T02:25:45.231Z,99.99
2018-12-11T02:26:45.104Z,99.99
2018-12-11T02:27:45.106Z,99.99
2018-12-11T02:28:45.075Z,99.99
2018-12-11T02:29:44.992Z,99.99
2018-12-11T02:30:44.989Z,99.99
2018-12-11T02:31:44.873Z,99.99
2018-12-11T02:32:44.872Z,99.99
2018-12-11T02:33:44.745Z,99.99
2018-12-11T02:34:44.747Z,99.99
2018-12-11T02:35:44.744Z,99.99
2018-12-11T02:36:44.626Z,99.99
2018-12-11T02:37:44.641Z,99.99
2018-12-11T02:38:44.502Z,99.99
2018-12-11T02:39:44.501Z,99.99
2018-12-11T02:40:44.504Z,99.99
2018-12-11T02:41:44.385Z,99.99
2018-12-11T02:42:44.386Z,99.99
2018-12-11T02:43:44.266Z,99.99
2018-12-11T02:44:44.266Z,99.99
2018-12-11T02:45:44.258Z,99.99
2018-12-11T02:46:44.140Z,99.99
2018-12-11T02:47:44.151Z,99.99
2018-12-11T02:48:44.025Z,99.99
2018-12-11T02:49:44.019Z,99.99
2018-12-11T02:50:43.901Z,99.99
2018-12-11T02:51:43.900Z,99.99
2018-12-11T02:52:43.903Z,99.99
2018-12-11T02:53:43.789Z,99.99
2018-12-11T02:54:43.786Z,99.99
2018-12-11T02:55:43.662Z,99.99
2018-12-11T02:56:43.663Z,99.99
2018-12-11T02:57:43.661Z,99.99
2018-12-11T02:58:43.541Z,99.99
2018-12-11T02:59:43.549Z,99.99
2018-12-11T03:00:43.420Z,99.99
2018-12-11T03:01:43.418Z,99.99
2018-12-11T03:02:43.424Z,99.99
2018-12-11T03:03:43.302Z,99.99
2018-12-11T03:04:43.297Z,99.99
2018-12-11T03:05:43.177Z,99.99
2018-12-11T03:06:43.180Z,99.99
2018-12-11T03:07:43.141Z,99.99
2018-12-11T03:08:43.063Z,99.99
2018-12-11T03:09:43.061Z,99.99
2018-12-11T03:10:42.942Z,99.99
2018-12-11T03:11:42.942Z,99.99
2018-12-11T03:12:42.819Z,99.99
2018-12-11T03:13:42.822Z,99.99
2018-12-11T03:14:42.835Z,99.99
2018-12-11T03:15:42.821Z,99.99
2018-12-11T03:16:42.700Z,99.99
2018-12-11T03:17:42.588Z,99.99
2018-12-11T03:18:42.575Z,99.99
2018-12-11T03:19:42.576Z,99.99
2018-12-11T03:20:42.467Z,99.99
2018-12-11T03:21:42.454Z,99.99
2018-12-11T03:22:42.338Z,99.99
2018-12-11T03:23:42.334Z,99.99
2018-12-11T03:24:42.337Z,99.99
2018-12-11T03:25:42.214Z,99.99
2018-12-11T03:26:42.213Z,99.99
2018-12-11T03:27:42.097Z,99.99
2018-12-11T03:28:42.097Z,99.99
2018-12-11T03:29:41.978Z,99.99
2018-12-11T03:30:42.008Z,99.99
2018-12-11T03:31:41.995Z,99.99
2018-12-11T03:32:41.853Z,99.99
2018-12-11T03:33:41.851Z,99.99
2018-12-11T03:34:41.733Z,99.99
2018-12-11T03:35:41.737Z,99.99
2018-12-11T03:36:41.738Z,99.99
2018-12-11T03:37:41.611Z,99.99
2018-12-11T03:38:41.614Z,99.99
2018-12-11T03:39:41.491Z,99.99
2018-12-11T03:40:41.509Z,99.99
2018-12-11T03:41:41.500Z,99.99
2018-12-11T03:42:41.369Z,99.99
2018-12-11T03:43:41.375Z,99.99
2018-12-11T03:44:41.250Z,99.99
2018-12-11T03:45:41.251Z,99.99
2018-12-11T03:46:41.253Z,99.99
2018-12-11T03:47:41.130Z,99.99
2018-12-11T03:48:41.129Z,99.99
2018-12-11T03:49:41.008Z,99.99
2018-12-11T03:50:41.008Z,99.99
2018-12-11T03:51:40.890Z,99.99
2018-12-11T03:52:40.893Z,99.99
2018-12-11T03:53:40.888Z,99.99
2018-12-11T03:54:40.769Z,99.99
2018-12-11T03:55:40.774Z,99.99
2018-12-11T03:56:40.650Z,99.99
2018-12-11T03:57:40.655Z,99.99
2018-12-11T03:58:40.647Z,99.99
2018-12-11T03:59:40.532Z,99.99
2018-12-11T04:00:40.534Z,99.99
2018-12-11T04:01:40.425Z,99.99
2018-12-11T04:02:40.405Z,99.99
2018-12-11T04:03:40.406Z,99.99
2018-12-11T04:04:40.297Z,99.99
2018-12-11T04:05:40.286Z,99.99
2018-12-11T04:06:40.167Z,99.99
2018-12-11T04:07:40.170Z,99.99
2018-12-11T04:08:40.166Z,99.99
2018-12-11T04:09:40.049Z,99.99
2018-12-11T04:10:40.046Z,99.99
2018-12-11T04:11:39.930Z,99.99
2018-12-11T04:12:39.924Z,99.99
2018-12-11T04:13:39.886Z,99.99
2018-12-11T04:14:39.804Z,99.99
2018-12-11T04:15:39.819Z,99.99
2018-12-11T04:16:39.686Z,99.99
2018-12-11T04:17:39.693Z,99.99
2018-12-11T04:18:39.561Z,99.99
2018-12-11T04:19:39.564Z,99.99
2018-12-11T04:20:39.567Z,99.99
2018-12-11T04:21:39.451Z,99.99
2018-12-11T04:22:39.442Z,99.99
2018-12-11T04:23:39.326Z,99.99
2018-12-11T04:24:39.324Z,99.99
2018-12-11T04:25:39.320Z,99.99
2018-12-11T04:26:39.203Z,99.99
2018-12-11T04:27:39.284Z,99.99
2018-12-11T04:28:39.083Z,99.99
2018-12-11T04:29:39.082Z,99.99
2018-12-11T04:30:39.048Z,99.99
2018-12-11T04:31:38.963Z,99.99
2018-12-11T04:32:38.969Z,99.99
2018-12-11T04:33:38.845Z,99.99
2018-12-11T04:34:38.838Z,99.99
2018-12-11T04:35:38.807Z,99.99
2018-12-11T04:36:38.719Z,99.99
2018-12-11T04:37:38.727Z,99.99
2018-12-11T04:38:38.605Z,99.99
2018-12-11T04:39:38.600Z,99.99
2018-12-11T04:40:38.484Z,99.99
2018-12-11T04:41:38.485Z,99.99
2018-12-11T04:42:38.476Z,99.99
2018-12-11T04:43:38.357Z,99.99
2018-12-11T04:44:38.360Z,99.99
2018-12-11T04:45:38.266Z,99.99
2018-12-11T04:46:38.237Z,99.99
2018-12-11T04:47:38.243Z,99.99
2018-12-11T04:48:38.122Z,99.99
2018-12-11T04:49:38.117Z,99.99
2018-12-11T04:50:37.997Z,99.99
2018-12-11T04:51:37.998Z,99.99
2018-12-11T04:52:37.877Z,99.99
2018-12-11T04:53:37.883Z,99.99
2018-12-11T04:54:37.885Z,99.99
2018-12-11T04:55:37.755Z,99.99
2018-12-11T04:56:37.764Z,99.99
2018-12-11T04:57:37.642Z,99.99
2018-12-11T04:58:37.634Z,99.99
2018-12-11T04:59:37.634Z,99.99
2018-12-11T05:00:37.514Z,99.99
2018-12-11T05:01:37.514Z,99.99
2018-12-11T05:02:37.394Z,99.99
2018-12-11T05:03:37.394Z,99.99
2018-12-11T05:04:37.398Z,99.99
2018-12-11T05:05:37.272Z,99.99
2018-12-11T05:06:37.271Z,99.99
2018-12-11T05:07:37.158Z,99.99
2018-12-11T05:08:37.158Z,99.99
2018-12-11T05:09:37.168Z,99.99
2018-12-11T05:10:37.033Z,99.99
2018-12-11T05:11:37.034Z,99.99
2018-12-11T05:12:36.917Z,99.99
2018-12-11T05:13:36.917Z,99.99
2018-12-11T05:14:36.792Z,99.99
2018-12-11T05:15:36.795Z,99.99
2018-12-11T05:16:36.795Z,99.99
2018-12-11T05:17:36.678Z,99.99
2018-12-11T05:18:36.675Z,99.99
2018-12-11T05:19:36.556Z,99.99
2018-12-11T05:20:36.558Z,99.99
2018-12-11T05:21:36.550Z,99.99
2018-12-11T05:22:36.434Z,99.99
2018-12-11T05:23:36.431Z,99.99
2018-12-11T05:24:36.307Z,99.99
2018-12-11T05:25:36.311Z,99.99
2018-12-11T05:26:36.309Z,99.99
2018-12-11T05:27:36.188Z,99.99
2018-12-11T05:28:36.188Z,99.99
2018-12-11T05:29:36.077Z,99.99
2018-12-11T05:30:36.075Z,99.99
2018-12-11T05:31:36.066Z,99.99
2018-12-11T05:32:35.947Z,99.99
2018-12-11T05:33:35.954Z,99.99
2018-12-11T05:34:35.831Z,99.99
2018-12-11T05:35:35.832Z,99.99
2018-12-11T05:36:35.706Z,99.99
2018-12-11T05:37:35.705Z,99.99
2018-12-11T05:38:35.705Z,99.99
2018-12-11T05:39:35.584Z,99.99
2018-12-11T05:40:35.587Z,99.99
2018-12-11T05:41:35.466Z,99.99
2018-12-11T05:42:35.472Z,99.99
2018-12-11T05:43:35.470Z,99.99
2018-12-11T05:44:35.345Z,99.99
2018-12-11T05:45:35.350Z,99.99
2018-12-11T05:46:35.226Z,99.99
2018-12-11T05:47:35.225Z,99.99
2018-12-11T05:48:35.226Z,99.99
2018-12-11T05:49:35.108Z,99.99
2018-12-11T05:50:35.105Z,99.99
2018-12-11T05:51:34.990Z,99.99
2018-12-11T05:52:34.983Z,99.99
2018-12-11T05:53:34.980Z,99.99
2018-12-11T05:54:34.861Z,99.99
2018-12-11T05:55:34.862Z,99.99
2018-12-11T05:56:34.750Z,99.99
2018-12-11T05:57:34.741Z,99.99
2018-12-11T05:58:34.622Z,99.99
2018-12-11T05:59:34.619Z,99.99
2018-12-11T06:00:34.625Z,99.99
2018-12-11T06:01:34.509Z,99.99
2018-12-11T06:02:34.501Z,99.99
2018-12-11T06:03:34.378Z,99.99
2018-12-11T06:04:34.379Z,99.99
2018-12-11T06:05:34.384Z,99.99
2018-12-11T06:06:34.259Z,99.99
2018-12-11T06:07:34.265Z,99.99
2018-12-11T06:08:34.137Z,99.99
2018-12-11T06:09:34.138Z,99.99
2018-12-11T06:10:34.146Z,99.99
2018-12-11T06:11:34.019Z,99.99
2018-12-11T06:12:34.017Z,99.99
2018-12-11T06:13:33.912Z,99.99
2018-12-11T06:14:33.907Z,99.99
2018-12-11T06:15:33.906Z,99.99
2018-12-11T06:16:33.777Z,99.99
2018-12-11T06:17:33.781Z,99.99
2018-12-11T06:18:33.655Z,99.99
2018-12-11T06:19:33.655Z,99.99
2018-12-11T06:20:34.557Z,99.99
2018-12-11T06:21:33.537Z,99.99
2018-12-11T06:22:33.535Z,99.99
2018-12-11T06:23:33.415Z,99.99
2018-12-11T06:24:33.415Z,99.99
2018-12-11T06:25:33.297Z,99.99
2018-12-11T06:26:33.299Z,99.99
2018-12-11T06:27:33.293Z,99.99
2018-12-11T06:28:33.174Z,99.99
2018-12-11T06:29:33.173Z,99.99
2018-12-11T06:30:33.055Z,99.99
2018-12-11T06:31:33.053Z,99.99
2018-12-11T06:32:33.051Z,99.99
2018-12-11T06:33:32.934Z,99.99
2018-12-11T06:34:32.933Z,99.99
2018-12-11T06:35:32.813Z,99.99
2018-12-11T06:36:32.811Z,99.99
2018-12-11T06:37:32.812Z,99.99
2018-12-11T06:38:32.689Z,99.99
2018-12-11T06:39:32.698Z,99.99
2018-12-11T06:40:32.576Z,99.99
2018-12-11T06:41:32.579Z,99.99
2018-12-11T06:42:32.450Z,99.99
2018-12-11T06:43:32.448Z,99.99
2018-12-11T06:44:32.455Z,99.99
2018-12-11T06:45:32.330Z,99.99
2018-12-11T06:46:32.331Z,99.99
2018-12-11T06:47:32.210Z,99.99
2018-12-11T06:48:32.211Z,99.99
2018-12-11T06:49:32.214Z,99.99
2018-12-11T06:50:32.088Z,99.99
2018-12-11T06:51:32.086Z,99.99
2018-12-11T06:52:31.969Z,99.99
2018-12-11T06:53:31.982Z,99.99
2018-12-11T06:54:31.974Z,99.99
2018-12-11T06:55:31.847Z,99.99
2018-12-11T06:56:31.845Z,99.99
2018-12-11T06:57:31.729Z,99.99
2018-12-11T06:58:31.740Z,99.99
2018-12-11T06:59:31.729Z,99.99
2018-12-11T07:00:31.610Z,99.99
2018-12-11T07:01:31.614Z,99.99
2018-12-11T07:02:31.484Z,99.99
2018-12-11T07:03:31.485Z,99.99
2018-12-11T07:04:31.370Z,99.99
2018-12-11T07:05:31.372Z,99.99
2018-12-11T07:06:31.369Z,99.99
2018-12-11T07:07:31.243Z,99.99
2018-12-11T07:08:31.248Z,99.99
2018-12-11T07:09:31.121Z,99.99
2018-12-11T07:10:31.128Z,99.99
2018-12-11T07:11:31.126Z,99.99
2018-12-11T07:12:31.006Z,99.99
2018-12-11T07:13:31.027Z,99.99
2018-12-11T07:14:30.885Z,99.99
2018-12-11T07:15:30.886Z,99.99
2018-12-11T07:16:30.883Z,99.99
2018-12-11T07:17:30.767Z,99.99
2018-12-11T07:18:30.766Z,99.99
2018-12-11T07:19:30.648Z,99.99
2018-12-11T07:20:30.641Z,99.99
2018-12-11T07:21:30.602Z,99.99
2018-12-11T07:22:30.521Z,99.99
2018-12-11T07:23:30.526Z,99.99
2018-12-11T07:24:30.404Z,99.99
2018-12-11T07:25:30.413Z,99.99
2018-12-11T07:26:30.289Z,99.99
2018-12-11T07:27:30.288Z,99.99
2018-12-11T07:28:30.286Z,99.99
2018-12-11T07:29:30.158Z,99.99
2018-12-11T07:30:30.162Z,99.99
2018-12-11T07:31:30.073Z,99.99
2018-12-11T07:32:30.051Z,99.99
2018-12-11T07:33:30.040Z,99.99
2018-12-11T07:34:29.921Z,99.99
2018-12-11T07:35:29.916Z,99.99
2018-12-11T07:36:29.796Z,99.99
2018-12-11T07:37:29.797Z,99.99
2018-12-11T07:38:29.802Z,99.99
2018-12-11T07:39:29.676Z,99.99
2018-12-11T07:40:29.675Z,99.99
2018-12-11T07:41:29.568Z,99.99
2018-12-11T07:42:29.555Z,99.99
2018-12-11T07:43:29.434Z,99.99
2018-12-11T07:44:29.434Z,99.99
2018-12-11T07:45:29.434Z,99.99
2018-12-11T07:46:29.313Z,99.99
2018-12-11T07:47:29.321Z,99.99
2018-12-11T07:48:29.196Z,99.99
2018-12-11T07:49:29.192Z,99.99
2018-12-11T07:50:29.193Z,99.99
2018-12-11T07:51:29.081Z,99.99
2018-12-11T07:52:29.071Z,99.99
2018-12-11T07:53:28.953Z,99.99
2018-12-11T07:54:28.953Z,99.99
2018-12-11T07:55:28.955Z,99.99
2018-12-11T07:56:28.830Z,99.99
2018-12-11T07:57:28.831Z,99.99
2018-12-11T07:58:28.709Z,99.99
2018-12-11T07:59:28.709Z,99.99
2018-12-11T08:00:28.591Z,99.99
2018-12-11T08:01:28.591Z,99.99
2018-12-11T08:02:28.589Z,99.99
2018-12-11T08:03:28.525Z,99.99
2018-12-11T08:04:28.476Z,99.99
2018-12-11T08:05:28.350Z,99.99
2018-12-11T08:06:28.349Z,99.99
2018-12-11T08:07:28.354Z,99.99
2018-12-11T08:08:28.227Z,99.99
2018-12-11T08:09:28.229Z,99.99
2018-12-11T08:10:28.117Z,99.99
2018-12-11T08:11:28.110Z,99.99
2018-12-11T08:12:28.106Z,99.99
2018-12-11T08:13:27.988Z,99.99
2018-12-11T08:14:27.988Z,99.99
2018-12-11T08:15:27.869Z,99.99
2018-12-11T08:16:27.867Z,99.99
2018-12-11T08:17:27.833Z,99.99
2018-12-11T08:18:27.750Z,99.99
2018-12-11T08:19:27.749Z,99.99
2018-12-11T08:20:27.627Z,99.99
2018-12-11T08:21:27.625Z,99.99
2018-12-11T08:22:27.588Z,99.99
2018-12-11T08:23:27.504Z,99.99
2018-12-11T08:24:27.505Z,99.99
2018-12-11T08:25:27.386Z,99.99
2018-12-11T08:26:27.391Z,99.99
2018-12-11T08:27:27.265Z,99.99
2018-12-11T08:28:27.264Z,99.99
2018-12-11T08:29:27.266Z,99.99
2018-12-11T08:30:27.150Z,99.99
2018-12-11T08:31:27.142Z,99.99
2018-12-11T08:32:27.024Z,99.99
2018-12-11T08:33:27.023Z,99.99
2018-12-11T08:34:27.033Z,99.99
2018-12-11T08:35:26.903Z,99.99
2018-12-11T08:36:26.902Z,99.99
2018-12-11T08:37:26.784Z,99.99
2018-12-11T08:38:26.785Z,99.99
2018-12-11T08:39:27.163Z,99.99
2018-12-11T08:40:26.667Z,99.99
2018-12-11T08:41:26.666Z,99.99
2018-12-11T08:42:26.541Z,99.99
2018-12-11T08:43:26.540Z,99.99
2018-12-11T08:44:26.419Z,99.99
2018-12-11T08:45:26.472Z,99.99
2018-12-11T08:46:26.422Z,99.99
2018-12-11T08:47:26.300Z,99.99
2018-12-11T08:48:26.307Z,99.99
2018-12-11T08:49:26.180Z,99.99
2018-12-11T08:50:26.179Z,99.99
2018-12-11T08:51:26.180Z,99.99
2018-12-11T08:53:13.554Z,99.99
2018-12-11T08:54:13.347Z,99.99
2018-12-11T08:55:13.301Z,99.99
2018-12-11T08:56:13.249Z,99.99
2018-12-11T08:57:13.199Z,99.99
2018-12-11T08:58:13.153Z,99.99
2018-12-11T08:59:13.099Z,99.99
2018-12-11T09:00:13.052Z,99.99
2018-12-11T09:01:13.003Z,99.99
2018-12-11T09:02:12.954Z,99.99
2018-12-11T09:03:12.911Z,99.99
2018-12-11T09:04:12.856Z,99.99
2018-12-11T09:05:12.804Z,99.99
2018-12-11T09:06:12.761Z,99.99
2018-12-11T09:07:12.715Z,99.99
2018-12-11T09:08:12.670Z,99.99
2018-12-11T09:09:12.612Z,99.99
2018-12-11T09:10:12.579Z,99.99
2018-12-11T09:11:12.508Z,99.99
2018-12-11T09:12:12.459Z,99.99
2018-12-11T09:13:12.411Z,99.99
2018-12-11T09:14:12.362Z,99.99
2018-12-11T09:15:12.316Z,99.99
2018-12-11T09:16:12.342Z,99.99
2018-12-11T09:17:12.213Z,99.99
2018-12-11T09:18:12.266Z,99.99
2018-12-11T09:19:12.143Z,99.99
2018-12-11T09:20:12.138Z,99.99
2018-12-11T09:21:12.021Z,99.99
2018-12-11T09:22:12.018Z,99.99
2018-12-11T09:23:12.027Z,99.99
2018-12-11T09:24:11.898Z,99.99
2018-12-11T09:25:11.899Z,99.99
2018-12-11T09:26:11.778Z,99.99
2018-12-11T09:27:11.776Z,99.99
2018-12-11T09:28:11.860Z,99.99
2018-12-11T09:29:11.659Z,99.99
2018-12-11T09:30:11.667Z,99.99
2018-12-11T09:31:11.543Z,99.99
2018-12-11T09:32:11.544Z,99.99
2018-12-11T09:33:11.536Z,99.99
2018-12-11T09:34:11.417Z,99.99
2018-12-11T09:35:11.415Z,99.99
2018-12-11T09:36:11.303Z,99.99
2018-12-11T09:37:11.304Z,99.99
2018-12-11T09:38:11.259Z,99.99
2018-12-11T09:39:11.181Z,99.99
2018-12-11T09:40:11.184Z,99.99
2018-12-11T09:41:11.057Z,99.99
2018-12-11T09:42:11.061Z,99.99
2018-12-11T09:43:10.934Z,99.99
2018-12-11T09:44:10.933Z,99.99
2018-12-11T09:45:10.941Z,99.99
2018-12-11T09:46:10.828Z,99.99
2018-12-11T09:47:10.815Z,99.99
2018-12-11T09:48:10.698Z,99.99
2018-12-11T09:49:10.692Z,99.99
2018-12-11T09:50:10.699Z,99.99
2018-12-11T09:51:10.578Z,99.99
2018-12-11T09:52:10.578Z,99.99
2018-12-11T09:53:10.452Z,99.99
2018-12-11T09:54:10.453Z,99.99
2018-12-11T09:55:10.450Z,99.99
2018-12-11T09:56:10.331Z,99.99
2018-12-11T09:57:10.330Z,99.99
2018-12-11T09:58:10.211Z,99.99
2018-12-11T09:59:10.212Z,99.99
2018-12-11T10:00:10.210Z,99.99
2018-12-11T10:01:10.092Z,99.99
2018-12-11T10:02:10.100Z,99.99
2018-12-11T10:03:09.970Z,99.99
2018-12-11T10:04:09.975Z,99.99
2018-12-11T10:05:09.976Z,99.99
2018-12-11T10:06:09.848Z,99.99
2018-12-11T10:07:09.849Z,99.99
2018-12-11T10:08:09.732Z,99.99
2018-12-11T10:09:09.734Z,99.99
2018-12-11T10:10:09.728Z,99.99
2018-12-11T10:11:09.617Z,99.99
2018-12-11T10:12:09.608Z,99.99
2018-12-11T10:13:09.487Z,99.99
2018-12-11T10:14:09.495Z,99.99
2018-12-11T10:15:09.489Z,99.99
2018-12-11T10:16:09.368Z,99.99
2018-12-11T10:17:09.375Z,99.99
2018-12-11T10:18:09.246Z,99.99
2018-12-11T10:19:09.252Z,99.99
2018-12-11T10:20:09.249Z,99.99
2018-12-11T10:21:09.133Z,99.99
2018-12-11T10:22:09.125Z,99.99
2018-12-11T10:23:09.015Z,99.99
2018-12-11T10:24:09.013Z,99.99
2018-12-11T10:25:08.886Z,99.99
2018-12-11T10:26:08.887Z,99.99
2018-12-11T10:27:08.884Z,99.99
2018-12-11T10:28:08.778Z,99.99
2018-12-11T10:29:08.772Z,99.99
2018-12-11T10:30:08.645Z,99.99
2018-12-11T10:31:08.648Z,99.99
2018-12-11T10:32:08.643Z,99.99
2018-12-11T10:33:08.530Z,99.99
2018-12-11T10:34:08.536Z,99.99
2018-12-11T10:35:08.403Z,99.99
2018-12-11T10:36:08.410Z,99.99
2018-12-11T10:37:08.409Z,99.99
2018-12-11T10:38:08.289Z,99.99
2018-12-11T10:39:08.281Z,99.99
2018-12-11T10:40:08.171Z,99.99
2018-12-11T10:41:08.207Z,99.99
2018-12-11T10:42:08.161Z,99.99
2018-12-11T10:43:08.040Z,99.99
2018-12-11T10:44:08.039Z,99.99
2018-12-11T10:45:07.921Z,99.99
2018-12-11T10:46:07.924Z,99.99
2018-12-11T10:47:07.919Z,99.99
2018-12-11T10:48:07.799Z,99.99
2018-12-11T10:49:07.798Z,99.99
2018-12-11T10:50:07.680Z,99.99
2018-12-11T10:51:07.678Z,99.99
2018-12-11T10:52:07.686Z,99.99
2018-12-11T10:53:07.560Z,99.99
2018-12-11T10:54:07.562Z,99.99
2018-12-11T10:55:07.437Z,99.99
2018-12-11T10:56:07.446Z,99.99
2018-12-11T10:57:07.438Z,99.99
2018-12-11T10:58:07.317Z,99.99
2018-12-11T10:59:07.321Z,99.99
2018-12-11T11:00:07.196Z,99.99
2018-12-11T11:01:07.196Z,99.99
2018-12-11T11:02:07.205Z,99.99
2018-12-11T11:03:07.075Z,99.99
2018-12-11T11:04:07.078Z,99.99
2018-12-11T11:05:06.955Z,99.99
2018-12-11T11:06:06.955Z,99.99
2018-12-11T11:07:06.966Z,99.99
2018-12-11T11:08:06.834Z,99.99
2018-12-11T11:09:06.834Z,99.99
2018-12-11T11:10:06.730Z,99.99
2018-12-11T11:11:06.715Z,99.99
2018-12-11T11:12:06.717Z,99.99
2018-12-11T11:13:06.598Z,99.99
2018-12-11T11:14:06.595Z,99.99
2018-12-11T11:15:06.474Z,99.99
2018-12-11T11:16:06.473Z,99.99
2018-12-11T11:17:06.481Z,99.99
2018-12-11T11:18:06.360Z,99.99
2018-12-11T11:19:06.359Z,99.99
2018-12-11T11:20:06.231Z,99.99
2018-12-11T11:21:06.231Z,99.99
2018-12-11T11:22:06.233Z,99.99
2018-12-11T11:23:06.112Z,99.99
2018-12-11T11:24:06.122Z,99.99
2018-12-11T11:25:05.999Z,99.99
2018-12-11T11:26:05.996Z,99.99
2018-12-11T11:27:05.990Z,99.99
2018-12-11T11:28:05.880Z,99.99
2018-12-11T11:29:05.875Z,99.99
2018-12-11T11:30:05.749Z,99.99
2018-12-11T11:31:05.752Z,99.99
2018-12-11T11:32:05.750Z,99.99
2018-12-11T11:33:05.637Z,99.99
2018-12-11T11:34:05.633Z,99.99
2018-12-11T11:35:05.512Z,99.99
2018-12-11T11:36:05.508Z,99.99
2018-12-11T11:37:05.516Z,99.99
2018-12-11T11:38:05.387Z,99.99
2018-12-11T11:39:05.387Z,99.99
2018-12-11T11:40:05.275Z,99.99
2018-12-11T11:41:05.275Z,99.99
2018-12-11T11:42:05.275Z,99.99
2018-12-11T11:43:05.156Z,99.99
2018-12-11T11:44:05.154Z,99.99
2018-12-11T11:45:05.039Z,99.99
2018-12-11T11:46:05.030Z,99.99
2018-12-11T11:47:05.025Z,99.99
2018-12-11T11:48:04.908Z,99.99
2018-12-11T11:49:04.919Z,99.99
2018-12-11T11:50:04.785Z,99.99
2018-12-11T11:51:04.783Z,99.99
2018-12-11T11:52:04.785Z,99.99
2018-12-11T11:53:04.666Z,99.99
2018-12-11T11:54:04.665Z,99.99
2018-12-11T11:55:04.544Z,99.99
2018-12-11T11:56:04.547Z,99.99
2018-12-11T11:57:04.545Z,99.99
2018-12-11T11:58:04.423Z,99.99
2018-12-11T11:59:04.433Z,99.99
2018-12-11T12:00:04.303Z,99.99
2018-12-11T12:01:04.309Z,99.99
2018-12-11T12:02:04.307Z,99.99
2018-12-11T12:03:04.183Z,99.99
2018-12-11T12:04:04.187Z,99.99
2018-12-11T12:05:04.061Z,99.99
2018-12-11T12:06:04.062Z,99.99
2018-12-11T12:07:04.063Z,99.99
2018-12-11T12:08:03.941Z,99.99
2018-12-11T12:09:03.942Z,99.99
2018-12-11T12:10:03.826Z,99.99
2018-12-11T12:11:03.819Z,99.99
2018-12-11T12:12:03.822Z,99.99
2018-12-11T12:13:03.704Z,99.99
2018-12-11T12:14:03.704Z,99.99
2018-12-11T12:15:03.580Z,99.99
2018-12-11T12:16:03.581Z,99.99
2018-12-11T12:17:03.579Z,99.99
2018-12-11T12:18:03.458Z,99.99
2018-12-11T12:19:03.463Z,99.99
2018-12-11T12:20:03.346Z,99.99
2018-12-11T12:21:03.340Z,99.99
2018-12-11T12:22:03.345Z,99.99
2018-12-11T12:23:03.229Z,99.99
2018-12-11T12:24:03.217Z,99.99
2018-12-11T12:25:03.105Z,99.99
2018-12-11T12:26:03.096Z,99.99
2018-12-11T12:27:03.105Z,99.99
2018-12-11T12:28:02.984Z,99.99
2018-12-11T12:29:02.981Z,99.99
2018-12-11T12:30:02.972Z,99.99
2018-12-11T12:31:02.855Z,99.99
2018-12-11T12:32:02.859Z,99.99
2018-12-11T12:33:02.745Z,99.93
2018-12-11T12:34:02.736Z,99.99
2018-12-11T12:35:02.736Z,99.99
2018-12-11T12:36:02.617Z,99.99
2018-12-11T12:37:02.626Z,99.99
2018-12-11T12:38:02.496Z,99.99
2018-12-11T12:39:02.499Z,99.45
2018-12-11T12:40:02.494Z,98.79
2018-12-11T12:41:02.375Z,99.36
2018-12-11T12:42:02.376Z,99.93
2018-12-11T12:43:02.253Z,98.65
2018-12-11T12:44:02.259Z,97.98
2018-12-11T12:45:02.259Z,98.31
2018-12-11T12:46:02.132Z,98.03
2018-12-11T12:47:02.133Z,97.98
2018-12-11T12:48:02.024Z,97.79
2018-12-11T12:49:02.014Z,97.41
2018-12-11T12:50:02.014Z,98.08
2018-12-11T12:51:01.898Z,97.98
2018-12-11T12:52:01.899Z,98.36
2018-12-11T12:53:01.770Z,97.79